createdAt,value
2018-07-21T00:00:17.984Z,15.55
2018-07-21T00:02:46.656Z,16.00
2018-07-21T00:05:15.436Z,15.40
2018-07-21T00:07:44.355Z,16.45
2018-07-21T00:10:13.746Z,16.17
2018-07-21T00:12:42.964Z,15.98
2018-07-21T00:15:12.135Z,16.23
2018-07-21T00:17:41.315Z,15.10
2018-07-21T00:20:10.456Z,16.80
2018-07-21T00:22:39.163Z,16.87
2018-07-21T00:25:08.366Z,17.52
2018-07-21T00:27:37.398Z,16.25
2018-07-21T00:30:06.389Z,15.48
2018-07-21T00:32:35.192Z,16.40
2018-07-21T00:35:03.800Z,15.83
2018-07-21T00:37:32.759Z,15.58
2018-07-21T00:40:01.164Z,15.25
2018-07-21T00:42:29.731Z,14.65
2018-07-21T00:44:58.967Z,15.48
2018-07-21T00:47:27.904Z,15.10
2018-07-21T00:49:57.059Z,15.32
2018-07-21T00:52:25.711Z,15.03
2018-07-21T00:54:54.627Z,15.48
2018-07-21T00:57:23.511Z,15.60
2018-07-21T00:59:52.420Z,15.40
2018-07-21T01:02:21.415Z,15.32
2018-07-21T01:04:50.463Z,15.80
2018-07-21T01:07:19.067Z,14.60
2018-07-21T01:09:48.255Z,15.80
2018-07-21T01:12:17.097Z,14.85
2018-07-21T01:14:46.311Z,15.38
2018-07-21T01:17:15.756Z,15.13
2018-07-21T01:19:44.769Z,15.08
2018-07-21T01:22:13.979Z,15.88
2018-07-21T01:24:43.369Z,15.20
2018-07-21T01:27:12.300Z,14.73
2018-07-21T01:29:45.216Z,15.45
2018-07-21T01:32:14.241Z,14.18
2018-07-21T01:34:43.420Z,16.05
2018-07-21T01:37:12.473Z,14.55
2018-07-21T01:39:41.770Z,15.53
2018-07-21T01:42:10.532Z,14.33
2018-07-21T01:44:39.583Z,13.95
2018-07-21T01:47:08.604Z,14.98
2018-07-21T01:49:37.552Z,14.23
2018-07-21T01:52:06.492Z,15.08
2018-07-21T01:54:35.519Z,14.68
2018-07-21T01:57:04.267Z,14.23
2018-07-21T01:59:33.706Z,13.93
2018-07-21T02:02:02.263Z,14.20
2018-07-21T02:04:31.225Z,13.20
2018-07-21T02:07:00.732Z,14.23
2018-07-21T02:09:29.652Z,14.10
2018-07-21T02:11:59.083Z,13.35
2018-07-21T02:14:27.839Z,14.03
2018-07-21T02:16:56.747Z,13.48
2018-07-21T02:19:25.276Z,13.78
2018-07-21T02:21:54.403Z,14.07
2018-07-21T02:24:23.335Z,14.98
2018-07-21T02:26:52.596Z,14.43
2018-07-21T02:29:21.875Z,13.78
2018-07-21T02:31:50.853Z,14.18
2018-07-21T02:34:20.023Z,14.33
2018-07-21T02:36:48.984Z,13.38
2018-07-21T02:39:18.280Z,12.95
2018-07-21T02:41:47.128Z,13.60
2018-07-21T02:44:16.367Z,14.28
2018-07-21T02:46:45.192Z,13.53
2018-07-21T02:49:14.368Z,13.83
2018-07-21T02:51:43.108Z,13.20
2018-07-21T02:54:12.452Z,13.08
2018-07-21T02:56:40.900Z,12.63
2018-07-21T02:59:09.947Z,12.47
2018-07-21T03:01:38.999Z,13.35
2018-07-21T03:04:08.172Z,12.68
2018-07-21T03:06:37.372Z,12.05
2018-07-21T03:09:07.145Z,11.70
2018-07-21T03:11:35.935Z,11.80
2018-07-21T03:14:04.696Z,10.78
2018-07-21T03:16:33.900Z,11.35
2018-07-21T03:19:03.237Z,10.85
2018-07-21T03:21:31.856Z,10.43
2018-07-21T03:24:01.283Z,11.08
2018-07-21T03:26:30.419Z,11.12
2018-07-21T03:28:59.184Z,9.28
2018-07-21T03:31:28.992Z,8.83
2018-07-21T03:33:58.226Z,8.95
2018-07-21T03:36:27.491Z,9.10
2018-07-21T03:38:56.510Z,9.03
2018-07-21T03:41:25.728Z,9.93
2018-07-21T03:43:54.999Z,9.85
2018-07-21T03:46:24.004Z,9.93
2018-07-21T03:48:52.704Z,9.95
2018-07-21T03:51:21.679Z,10.40
2018-07-21T03:53:50.957Z,10.55
2018-07-21T03:56:19.368Z,10.63
2018-07-21T03:58:48.682Z,11.18
2018-07-21T04:01:17.840Z,11.15
2018-07-21T04:03:46.883Z,12.10
2018-07-21T04:06:15.615Z,11.80
2018-07-21T04:08:44.832Z,11.93
2018-07-21T04:11:13.745Z,12.05
2018-07-21T04:13:42.885Z,11.73
2018-07-21T04:16:11.780Z,12.25
2018-07-21T04:18:41.164Z,12.23
2018-07-21T04:21:10.223Z,12.55
2018-07-21T04:23:39.159Z,12.23
2018-07-21T04:26:08.824Z,12.58
2018-07-21T04:28:38.077Z,12.37
2018-07-21T04:31:07.127Z,11.75
2018-07-21T04:33:36.116Z,13.03
2018-07-21T04:36:05.312Z,12.90
2018-07-21T04:38:34.240Z,13.18
2018-07-21T04:41:03.196Z,11.73
2018-07-21T04:43:32.436Z,12.07
2018-07-21T04:46:01.521Z,13.53
2018-07-21T04:48:30.473Z,13.28
2018-07-21T04:50:59.867Z,13.10
2018-07-21T04:53:28.676Z,12.63
2018-07-21T04:55:57.843Z,12.50
2018-07-21T04:58:27.167Z,12.85
2018-07-21T05:00:56.129Z,13.10
2018-07-21T05:03:25.847Z,13.48
2018-07-21T05:05:55.211Z,12.58
2018-07-21T05:08:24.139Z,12.78
2018-07-21T05:10:53.456Z,13.88
2018-07-21T05:13:22.127Z,13.20
2018-07-21T05:15:51.436Z,14.37
2018-07-21T05:18:21.216Z,13.10
2018-07-21T05:20:49.761Z,13.53
2018-07-21T05:23:18.692Z,13.63
2018-07-21T05:25:47.923Z,14.10
2018-07-21T05:28:16.992Z,13.32
2018-07-21T05:30:45.284Z,13.43
2018-07-21T05:33:14.560Z,14.45
2018-07-21T05:38:21.914Z,13.98
2018-07-21T05:40:50.771Z,14.63
2018-07-21T05:43:19.659Z,14.35
2018-07-21T05:45:48.672Z,14.23
2018-07-21T05:48:17.655Z,14.37
2018-07-21T05:50:46.203Z,14.13
2018-07-21T05:53:15.178Z,14.17
2018-07-21T05:55:44.144Z,14.43
2018-07-21T05:58:13.188Z,14.83
2018-07-21T06:00:42.193Z,14.63
2018-07-21T06:03:11.820Z,15.50
2018-07-21T06:05:40.636Z,14.97
2018-07-21T06:08:09.432Z,16.15
2018-07-21T06:10:38.080Z,15.03
2018-07-21T06:13:07.588Z,15.17
2018-07-21T06:15:36.473Z,14.60
2018-07-21T06:18:05.885Z,14.47
2018-07-21T06:20:35.228Z,14.63
2018-07-21T06:23:04.159Z,15.33
2018-07-21T06:25:33.228Z,15.13
2018-07-21T06:28:02.379Z,14.95
2018-07-21T06:30:31.591Z,15.27
2018-07-21T06:33:00.541Z,15.33
2018-07-21T06:35:29.166Z,15.10
2018-07-21T06:37:58.540Z,14.53
2018-07-21T06:40:27.095Z,15.17
2018-07-21T06:42:55.929Z,15.85
2018-07-21T06:45:25.043Z,16.35
2018-07-21T06:47:54.181Z,15.60
2018-07-21T06:50:23.162Z,15.23
2018-07-21T06:52:51.783Z,15.75
2018-07-21T06:55:20.852Z,15.87
2018-07-21T06:57:50.100Z,15.90
2018-07-21T07:00:18.809Z,14.45
2018-07-21T07:02:48.096Z,16.50
2018-07-21T07:05:17.272Z,15.60
2018-07-21T07:07:46.042Z,16.27
2018-07-21T07:10:15.647Z,16.60
2018-07-21T07:12:44.747Z,15.55
2018-07-21T07:15:13.803Z,15.93
2018-07-21T07:17:43.084Z,15.55
2018-07-21T07:20:12.512Z,15.28
2018-07-21T07:22:41.991Z,15.60
2018-07-21T07:25:10.738Z,16.62
2018-07-21T07:27:40.076Z,15.93
2018-07-21T07:30:08.456Z,15.25
2018-07-21T07:32:38.176Z,15.00
2018-07-21T07:35:07.652Z,15.30
2018-07-21T07:37:36.628Z,16.00
2018-07-21T07:40:05.555Z,16.17
2018-07-21T07:42:34.459Z,15.75
2018-07-21T07:45:03.829Z,16.40
2018-07-21T07:47:32.740Z,15.45
2018-07-21T07:50:02.636Z,16.17
2018-07-21T07:52:31.855Z,16.10
2018-07-21T07:55:00.723Z,15.83
2018-07-21T07:57:29.695Z,15.83
2018-07-21T07:59:59.119Z,15.35
2018-07-21T08:02:27.932Z,14.75
2018-07-21T08:04:57.199Z,15.68
2018-07-21T08:07:26.231Z,15.58
2018-07-21T08:09:55.365Z,15.03
2018-07-21T08:12:24.066Z,15.58
2018-07-21T08:14:52.778Z,17.10
2018-07-21T08:17:22.011Z,16.20
2018-07-21T08:19:50.974Z,15.88
2018-07-21T08:22:20.259Z,15.45
2018-07-21T08:24:49.611Z,15.15
2018-07-21T08:27:18.325Z,15.35
2018-07-21T08:29:47.475Z,14.63
2018-07-21T08:32:16.797Z,14.63
2018-07-21T08:34:46.281Z,14.83
2018-07-21T08:37:14.932Z,14.25
2018-07-21T08:39:43.951Z,13.88
2018-07-21T08:42:13.016Z,13.28
2018-07-21T08:44:42.315Z,12.80
2018-07-21T08:47:11.371Z,13.75
2018-07-21T08:49:40.449Z,13.28
2018-07-21T08:52:09.680Z,14.93
2018-07-21T08:54:38.641Z,14.20
2018-07-21T08:57:07.621Z,13.88
2018-07-21T08:59:41.083Z,13.48
2018-07-21T09:02:10.265Z,14.60
2018-07-21T09:04:38.899Z,14.00
2018-07-21T09:07:07.764Z,13.70
2018-07-21T09:09:36.461Z,13.70
2018-07-21T09:12:09.576Z,13.30
2018-07-21T09:14:38.163Z,11.95
2018-07-21T09:17:07.488Z,13.13
2018-07-21T09:19:37.536Z,12.33
2018-07-21T09:22:06.475Z,11.85
2018-07-21T09:24:35.775Z,13.05
2018-07-21T09:27:05.045Z,12.53
2018-07-21T09:29:33.737Z,13.43
2018-07-21T09:32:03.004Z,11.48
2018-07-21T09:34:31.952Z,12.75
2018-07-21T09:37:00.851Z,11.95
2018-07-21T09:39:30.016Z,11.55
2018-07-21T09:41:59.175Z,11.30
2018-07-21T09:44:28.296Z,12.63
2018-07-21T09:46:57.052Z,11.93
2018-07-21T09:49:25.995Z,11.88
2018-07-21T09:51:55.056Z,11.70
2018-07-21T09:54:24.440Z,11.30
2018-07-21T09:56:53.099Z,11.38
2018-07-21T09:59:22.323Z,11.38
2018-07-21T10:01:54.832Z,10.75
2018-07-21T10:04:24.047Z,11.70
2018-07-21T10:06:53.493Z,10.45
2018-07-21T10:09:23.148Z,10.40
2018-07-21T10:11:51.879Z,10.45
2018-07-21T10:14:20.763Z,9.18
2018-07-21T10:16:49.483Z,9.15
2018-07-21T10:19:18.139Z,9.50
2018-07-21T10:21:47.106Z,9.73
2018-07-21T10:24:21.284Z,9.75
2018-07-21T10:26:55.396Z,9.25
2018-07-21T10:29:24.464Z,10.10
2018-07-21T10:31:53.761Z,10.55
2018-07-21T10:34:22.559Z,9.58
2018-07-21T10:36:51.828Z,9.95
2018-07-21T10:39:20.997Z,10.05
2018-07-21T10:41:50.131Z,10.13
2018-07-21T10:44:19.075Z,9.08
2018-07-21T10:46:47.708Z,9.28
2018-07-21T10:49:16.431Z,9.40
2018-07-21T10:51:45.659Z,10.65
2018-07-21T10:54:15.351Z,8.58
2018-07-21T10:56:44.284Z,8.75
2018-07-21T10:59:13.456Z,9.33
2018-07-21T11:01:42.254Z,10.23
2018-07-21T11:04:11.139Z,9.98
2018-07-21T11:06:40.088Z,9.60
2018-07-21T11:09:09.436Z,9.58
2018-07-21T11:11:38.479Z,9.25
2018-07-21T11:14:07.536Z,9.35
2018-07-21T11:16:36.625Z,9.25
2018-07-21T11:19:05.384Z,8.78
2018-07-21T11:21:33.997Z,9.63
2018-07-21T11:24:03.033Z,9.68
2018-07-21T11:26:31.935Z,8.83
2018-07-21T11:29:00.588Z,9.28
2018-07-21T11:31:29.539Z,9.58
2018-07-21T11:33:58.487Z,8.53
2018-07-21T11:36:27.454Z,9.00
2018-07-21T11:38:56.409Z,8.90
2018-07-21T11:41:25.588Z,9.15
2018-07-21T11:43:55.840Z,9.28
2018-07-21T11:46:25.703Z,9.40
2018-07-21T11:48:54.391Z,8.95
2018-07-21T11:51:23.547Z,9.68
2018-07-21T11:53:52.098Z,9.35
2018-07-21T11:56:21.199Z,9.20
2018-07-21T11:58:50.099Z,9.53
2018-07-21T12:01:19.044Z,9.35
2018-07-21T12:03:47.951Z,9.18
2018-07-21T12:06:17.313Z,9.65
2018-07-21T12:08:46.496Z,10.08
2018-07-21T12:11:15.227Z,9.18
2018-07-21T12:13:44.816Z,9.13
2018-07-21T12:16:13.802Z,8.93
2018-07-21T12:18:42.524Z,9.15
2018-07-21T12:21:12.117Z,8.80
2018-07-21T12:23:41.479Z,8.55
2018-07-21T12:26:10.492Z,8.38
2018-07-21T12:28:39.547Z,8.98
2018-07-21T12:31:08.481Z,8.58
2018-07-21T12:33:38.375Z,8.15
2018-07-21T12:36:07.131Z,8.75
2018-07-21T12:38:36.351Z,8.13
2018-07-21T12:41:05.560Z,8.50
2018-07-21T12:43:34.511Z,8.55
2018-07-21T12:46:03.460Z,7.75
2018-07-21T12:48:32.400Z,8.38
2018-07-21T12:51:01.440Z,8.03
2018-07-21T12:53:30.924Z,8.18
2018-07-21T12:56:00.427Z,7.42
2018-07-21T12:58:29.135Z,8.28
2018-07-21T13:00:58.092Z,8.68
2018-07-21T13:03:27.284Z,7.75
2018-07-21T13:05:55.913Z,8.23
2018-07-21T13:08:24.920Z,8.48
2018-07-21T13:10:54.018Z,8.43
2018-07-21T13:13:22.885Z,9.35
2018-07-21T13:15:51.688Z,8.48
2018-07-21T13:18:21.055Z,8.85
2018-07-21T13:20:50.027Z,7.83
2018-07-21T13:23:18.617Z,8.75
2018-07-21T13:25:47.387Z,8.75
2018-07-21T13:28:16.533Z,8.10
2018-07-21T13:30:45.326Z,8.70
2018-07-21T13:33:16.168Z,8.48
2018-07-21T13:35:45.462Z,8.53
2018-07-21T13:38:14.105Z,8.75
2018-07-21T13:40:43.055Z,9.63
2018-07-21T13:43:12.188Z,8.85
2018-07-21T13:45:41.195Z,9.23
2018-07-21T13:48:09.928Z,8.68
2018-07-21T13:50:39.101Z,8.53
2018-07-21T13:53:08.799Z,8.45
2018-07-21T13:55:37.805Z,8.70
2018-07-21T13:58:07.044Z,8.78
2018-07-21T14:00:36.040Z,8.08
2018-07-21T14:03:05.324Z,8.45
2018-07-21T14:05:34.425Z,8.58
2018-07-21T14:08:03.700Z,8.43
2018-07-21T14:10:33.069Z,8.15
2018-07-21T14:13:02.004Z,8.10
2018-07-21T14:15:31.107Z,8.55
2018-07-21T14:17:59.964Z,7.90
2018-07-21T14:20:29.004Z,8.38
2018-07-21T14:22:58.023Z,8.60
2018-07-21T14:25:26.839Z,8.20
2018-07-21T14:27:55.843Z,8.55
2018-07-21T14:30:25.187Z,8.25
2018-07-21T14:32:54.208Z,8.18
2018-07-21T14:35:23.175Z,8.05
2018-07-21T14:37:52.220Z,9.13
2018-07-21T14:40:20.782Z,9.90
2018-07-21T14:42:49.807Z,9.95
2018-07-21T14:45:18.913Z,10.10
2018-07-21T14:47:48.594Z,9.83
2018-07-21T14:50:17.876Z,10.20
2018-07-21T14:52:46.561Z,10.03
2018-07-21T14:55:15.612Z,9.88
2018-07-21T14:57:44.593Z,10.10
2018-07-21T15:00:13.929Z,9.53
2018-07-21T15:02:43.301Z,9.85
2018-07-21T15:05:12.276Z,10.23
2018-07-21T15:07:41.467Z,10.20
2018-07-21T15:10:10.602Z,9.40
2018-07-21T15:12:39.760Z,8.65
2018-07-21T15:15:08.567Z,9.25
2018-07-21T15:17:37.175Z,10.00
2018-07-21T15:20:06.771Z,9.48
2018-07-21T15:22:36.228Z,9.83
2018-07-21T15:25:05.277Z,9.10
2018-07-21T15:27:35.120Z,9.03
2018-07-21T15:30:04.195Z,9.08
2018-07-21T15:32:33.928Z,9.23
2018-07-21T15:35:03.084Z,9.68
2018-07-21T15:37:32.299Z,8.20
2018-07-21T15:40:01.274Z,9.08
2018-07-21T15:42:30.508Z,8.55
2018-07-21T15:45:00.152Z,8.80
2018-07-21T15:47:28.956Z,9.48
2018-07-21T15:49:58.118Z,8.93
2018-07-21T15:52:27.638Z,9.05
2018-07-21T15:54:56.602Z,9.10
2018-07-21T15:57:25.646Z,8.55
2018-07-21T15:59:54.825Z,9.28
2018-07-21T16:02:23.902Z,8.98
2018-07-21T16:04:52.945Z,9.08
2018-07-21T16:07:21.816Z,8.68
2018-07-21T16:09:50.409Z,8.35
2018-07-21T16:12:19.427Z,9.53
2018-07-21T16:14:49.039Z,8.80
2018-07-21T16:17:17.750Z,8.75
2018-07-21T16:19:46.758Z,8.53
2018-07-21T16:22:16.343Z,8.53
2018-07-21T16:24:45.524Z,8.70
2018-07-21T16:27:15.135Z,9.08
2018-07-21T16:29:44.332Z,9.30
2018-07-21T16:32:13.732Z,8.70
2018-07-21T16:34:46.589Z,7.92
2018-07-21T16:37:15.332Z,8.90
2018-07-21T16:39:44.948Z,7.62
2018-07-21T16:42:13.342Z,7.45
2018-07-21T16:44:42.691Z,7.15
2018-07-21T16:47:11.439Z,6.78
2018-07-21T16:49:41.462Z,7.20
2018-07-21T16:52:10.240Z,6.75
2018-07-21T16:54:39.520Z,6.90
2018-07-21T16:57:08.223Z,6.62
2018-07-21T16:59:37.479Z,6.58
2018-07-21T17:02:06.868Z,7.53
2018-07-21T17:04:35.831Z,7.47
2018-07-21T17:07:04.463Z,7.42
2018-07-21T17:09:32.944Z,7.30
2018-07-21T17:12:02.076Z,6.92
2018-07-21T17:14:31.643Z,6.80
2018-07-21T17:17:00.926Z,6.00
2018-07-21T17:19:29.940Z,7.25
2018-07-21T17:21:58.922Z,6.50
2018-07-21T17:24:28.208Z,6.53
2018-07-21T17:26:57.048Z,7.40
2018-07-21T17:29:26.461Z,7.45
2018-07-21T17:31:55.303Z,6.70
2018-07-21T17:34:24.213Z,6.47
2018-07-21T17:36:53.320Z,6.40
2018-07-21T17:39:22.083Z,6.50
2018-07-21T17:41:51.176Z,6.22
2018-07-21T17:44:20.041Z,6.15
2018-07-21T17:46:49.012Z,6.62
2018-07-21T17:49:19.433Z,6.65
2018-07-21T17:51:48.824Z,7.00
2018-07-21T17:54:18.836Z,6.10
2018-07-21T17:56:48.215Z,6.55
2018-07-21T17:59:16.955Z,6.92
2018-07-21T18:01:45.367Z,6.45
2018-07-21T18:04:13.972Z,6.70
2018-07-21T18:09:20.224Z,6.05
2018-07-21T18:11:50.007Z,6.47
2018-07-21T18:14:18.891Z,6.03
2018-07-21T18:16:47.951Z,5.97
2018-07-21T18:19:18.004Z,7.05
2018-07-21T18:21:46.925Z,7.75
2018-07-21T18:24:15.644Z,6.20
2018-07-21T18:26:44.580Z,6.55
2018-07-21T18:29:13.882Z,6.22
2018-07-21T18:31:43.277Z,6.28
2018-07-21T18:34:13.037Z,6.53
2018-07-21T18:36:42.024Z,6.10
2018-07-21T18:39:12.047Z,6.20
2018-07-21T18:41:41.146Z,6.12
2018-07-21T18:44:10.344Z,6.67
2018-07-21T18:46:38.976Z,8.08
2018-07-21T18:49:07.559Z,7.70
2018-07-21T18:51:36.427Z,6.20
2018-07-21T18:54:04.985Z,5.97
2018-07-21T18:56:34.155Z,6.28
2018-07-21T18:59:03.103Z,6.25
2018-07-21T19:01:32.223Z,5.85
2018-07-21T19:04:00.798Z,6.00
2018-07-21T19:06:29.895Z,5.62
2018-07-21T19:09:05.164Z,5.70
2018-07-21T19:11:34.476Z,5.95
2018-07-21T19:14:03.588Z,6.17
2018-07-21T19:16:38.184Z,6.35
2018-07-21T19:19:08.153Z,6.80
2018-07-21T19:21:36.747Z,6.90
2018-07-21T19:24:06.068Z,6.20
2018-07-21T19:26:40.404Z,7.12
2018-07-21T19:29:09.476Z,6.95
2018-07-21T19:31:39.339Z,7.37
2018-07-21T19:34:08.445Z,6.90
2018-07-21T19:36:37.417Z,6.80
2018-07-21T19:39:07.733Z,6.85
2018-07-21T19:41:42.278Z,7.00
2018-07-21T19:44:11.560Z,6.62
2018-07-21T19:46:40.148Z,6.62
2018-07-21T19:49:08.848Z,7.15
2018-07-21T19:51:38.859Z,7.10
2018-07-21T19:54:07.867Z,6.42
2018-07-21T19:56:36.847Z,6.83
2018-07-21T19:59:05.788Z,6.67
2018-07-21T20:01:34.548Z,7.00
2018-07-21T20:04:04.005Z,6.70
2018-07-21T20:06:33.104Z,6.40
2018-07-21T20:09:02.202Z,6.42
2018-07-21T20:11:30.939Z,6.55
2018-07-21T20:13:59.654Z,6.42
2018-07-21T20:16:28.795Z,6.53
2018-07-21T20:19:00.287Z,6.08
2018-07-21T20:21:29.898Z,5.97
2018-07-21T20:23:58.704Z,6.58
2018-07-21T20:26:27.967Z,6.72
2018-07-21T20:28:57.250Z,7.03
2018-07-21T20:31:26.015Z,6.53
2018-07-21T20:33:55.324Z,7.20
2018-07-21T20:36:24.363Z,7.08
2018-07-21T20:38:53.392Z,8.18
2018-07-21T20:41:22.364Z,7.20
2018-07-21T20:43:51.388Z,7.30
2018-07-21T20:46:20.379Z,6.47
2018-07-21T20:48:49.461Z,7.00
2018-07-21T20:51:18.175Z,7.58
2018-07-21T20:53:46.785Z,6.30
2018-07-21T20:56:15.963Z,6.55
2018-07-21T20:58:44.985Z,7.10
2018-07-21T21:01:13.857Z,6.47
2018-07-21T21:03:42.467Z,6.90
2018-07-21T21:06:11.422Z,6.70
2018-07-21T21:08:41.371Z,6.42
2018-07-21T21:11:10.323Z,6.28
2018-07-21T21:13:39.256Z,6.30
2018-07-21T21:16:07.845Z,5.97
2018-07-21T21:18:36.796Z,5.92
2018-07-21T21:21:05.952Z,6.03
2018-07-21T21:23:35.352Z,5.70
2018-07-21T21:26:04.656Z,5.83
2018-07-21T21:28:33.713Z,6.00
2018-07-21T21:31:02.867Z,5.97
2018-07-21T21:33:31.812Z,5.85
2018-07-21T21:36:00.788Z,5.95
2018-07-21T21:38:30.020Z,6.40
2018-07-21T21:40:59.451Z,5.78
2018-07-21T21:43:28.134Z,5.08
2018-07-21T21:45:57.213Z,5.10
2018-07-21T21:48:26.382Z,5.03
2018-07-21T21:50:59.091Z,4.40
2018-07-21T21:53:28.444Z,4.28
2018-07-21T21:55:57.583Z,3.98
2018-07-21T21:58:26.252Z,4.25
2018-07-21T22:01:00.654Z,4.03
2018-07-21T22:03:31.277Z,3.80
2018-07-21T22:06:00.540Z,4.08
2018-07-21T22:08:29.995Z,3.33
2018-07-21T22:10:58.976Z,3.83
2018-07-21T22:13:28.927Z,3.42
2018-07-21T22:15:58.575Z,2.90
2018-07-21T22:21:03.647Z,3.30
2018-07-21T22:23:32.975Z,3.05
2018-07-21T22:26:02.101Z,2.80
2018-07-21T22:28:31.032Z,3.05
2018-07-21T22:31:00.208Z,2.27
2018-07-21T22:33:29.304Z,2.47
2018-07-21T22:35:58.645Z,2.55
2018-07-21T22:38:27.186Z,2.45
2018-07-21T22:40:55.979Z,2.23
2018-07-21T22:43:25.279Z,2.17
2018-07-21T22:45:54.618Z,2.00
2018-07-21T22:48:23.860Z,2.05
2018-07-21T22:50:52.772Z,2.10
2018-07-21T22:53:22.488Z,3.30
2018-07-21T22:55:51.508Z,2.10
2018-07-21T22:58:20.194Z,2.00
2018-07-21T23:00:49.780Z,2.30
2018-07-21T23:03:18.451Z,2.50
2018-07-21T23:05:47.371Z,2.05
2018-07-21T23:08:17.104Z,2.33
2018-07-21T23:10:50.375Z,2.10
2018-07-21T23:13:19.444Z,2.30
2018-07-21T23:15:48.360Z,2.40
2018-07-21T23:18:17.552Z,2.10
2018-07-21T23:20:46.805Z,2.30
2018-07-21T23:23:15.644Z,2.17
2018-07-21T23:25:44.275Z,2.20
2018-07-21T23:28:13.178Z,2.33
2018-07-21T23:30:42.160Z,2.10
2018-07-21T23:33:11.163Z,2.40
2018-07-21T23:35:40.064Z,2.47
2018-07-21T23:38:09.436Z,2.40
2018-07-21T23:40:38.601Z,2.53
2018-07-21T23:43:07.832Z,2.37
2018-07-21T23:45:37.324Z,2.43
2018-07-21T23:48:06.296Z,2.23
2018-07-21T23:50:34.855Z,2.37
2018-07-21T23:53:03.976Z,2.60
2018-07-21T23:55:33.572Z,2.50
2018-07-21T23:58:02.504Z,2.60
